Aérodrome :
LOGIN :

S'inscrire | Disclaimer

   EN    FR    IT 

 










Légende :    VFR   VFR Marginal   IFR   IFR Intensif   IFR Très Intensif
Visi : 
Plafond : 
>= 8 km
>= 3000ft
5 à 8 km
1000 à 3000 ft
1500m à 5 km
500 à 1000 ft
800 à 1500m
200 à 500 ft
< 800m
< 200 ft
Symboles :   Orages  Brouillard  Fortes neiges  Fortes précipitations  Vent > 20 kt
SIGMETs :   Divers  Orages  Givrage  Turbulence  Onde Orograph.  Cendres Volcan.






- Altitude de l'aérodrome : 1036 ft
- Code IATA : ERF


EDDE - Erfurt

DERNIER METAR :
  • 201320Z 02008KT CAVOK 18/13 Q1009 NOSIG

METARs EXPIRÉS :
  • 201250Z 01007KT CAVOK 18/13 Q1009 NOSIG
  • 201220Z 03007KT CAVOK 17/13 Q1009 NOSIG
  • 201150Z 04007KT CAVOK 18/13 Q1009 NOSIG
  • 201120Z 04006KT 010V070 CAVOK 18/12 Q1009 NOSIG
  • 201050Z 04004KT CAVOK 16/12 Q1010 NOSIG

TAF TAF EDDE
Valide du 20 à 12h jusqu'au 21 à 12h UTC


201100Z 2012/2112 VRB03KT CAVOK
BECMG 2017/2019 20007KT
BECMG 2107/2109 26007KT



MET'MAP, la Météo Aéronautique d'un coup d'oeil ! - Copyright ORBIFLY Décembre 2007 - Disclaimer

ORBIFLY MET'MAP TEAM :

Programmation & Développement : Alexandra Zaïnal
Conception & Développement : Baudouin d'Aumeries
Co-Programmation & Développement : Marc-Olivier Méhu
Soutien technique & logistique : Manuel Goepfert

Contact : metmap@orbifly.com




SOURCES & CREDITS :

   NOAA